sensor_id;sensor_type;location;lat;lon;timestamp;pressure;altitude;pressure_sealevel;temperature;humidity
56737;BME280;42618;51.226;4.910;2022-08-19T00:00:05;49581.47;;;-146.94;90.52
56737;BME280;42618;51.226;4.910;2022-08-19T00:02:32;49539.63;;;-146.94;91.21
56737;BME280;42618;51.226;4.910;2022-08-19T00:04:59;49575.50;;;-146.94;90.93
56737;BME280;42618;51.226;4.910;2022-08-19T00:07:26;49575.50;;;-146.94;90.28
56737;BME280;42618;51.226;4.910;2022-08-19T00:09:53;49587.47;;;-146.94;89.70
56737;BME280;42618;51.226;4.910;2022-08-19T00:12:22;49555.56;;;-146.94;89.75
56737;BME280;42618;51.226;4.910;2022-08-19T00:14:49;49607.41;;;-146.94;89.82
56737;BME280;42618;51.226;4.910;2022-08-19T00:17:16;49527.66;;;-146.94;89.73
56737;BME280;42618;51.226;4.910;2022-08-19T00:19:43;49561.53;;;-146.94;89.35
56737;BME280;42618;51.226;4.910;2022-08-19T00:22:09;49569.50;;;-146.94;89.31
56737;BME280;42618;51.226;4.910;2022-08-19T00:24:36;49533.63;;;-146.94;89.06
56737;BME280;42618;51.226;4.910;2022-08-19T00:27:05;49551.56;;;-146.94;88.87
56737;BME280;42618;51.226;4.910;2022-08-19T00:29:51;49575.50;;;-146.94;88.22
56737;BME280;42618;51.226;4.910;2022-08-19T00:32:18;49567.53;;;-146.94;88.57
56737;BME280;42618;51.226;4.910;2022-08-19T00:34:46;49531.63;;;-146.94;89.05
56737;BME280;42618;51.226;4.910;2022-08-19T00:37:12;49581.47;;;-146.94;89.28
56737;BME280;42618;51.226;4.910;2022-08-19T00:39:39;49537.63;;;-146.94;89.63
56737;BME280;42618;51.226;4.910;2022-08-19T00:42:06;49565.53;;;-146.94;90.42
56737;BME280;42618;51.226;4.910;2022-08-19T00:44:33;49555.56;;;-146.94;91.42
56737;BME280;42618;51.226;4.910;2022-08-19T00:46:59;49593.44;;;-146.94;90.91
56737;BME280;42618;51.226;4.910;2022-08-19T00:49:35;49543.59;;;-146.94;91.03
56737;BME280;42618;51.226;4.910;2022-08-19T00:52:12;49579.47;;;-146.94;91.20
56737;BME280;42618;51.226;4.910;2022-08-19T00:54:41;49529.66;;;-146.94;91.15
56737;BME280;42618;51.226;4.910;2022-08-19T00:57:12;49539.63;;;-146.94;91.13
56737;BME280;42618;51.226;4.910;2022-08-19T00:59:44;49549.59;;;-146.94;90.78
56737;BME280;42618;51.226;4.910;2022-08-19T01:02:30;49557.56;;;-146.94;90.80
56737;BME280;42618;51.226;4.910;2022-08-19T01:04:57;49583.47;;;-146.94;90.28
56737;BME280;42618;51.226;4.910;2022-08-19T01:07:25;49563.53;;;-146.94;90.05
56737;BME280;42618;51.226;4.910;2022-08-19T01:09:52;49587.47;;;-146.94;91.11
56737;BME280;42618;51.226;4.910;2022-08-19T01:12:19;49549.59;;;-146.94;91.08
56737;BME280;42618;51.226;4.910;2022-08-19T01:14:47;49571.50;;;-146.94;90.90
56737;BME280;42618;51.226;4.910;2022-08-19T01:17:14;49571.50;;;-146.94;90.75
56737;BME280;42618;51.226;4.910;2022-08-19T01:19:43;49571.50;;;-146.94;90.82
56737;BME280;42618;51.226;4.910;2022-08-19T01:24:58;49523.66;;;-146.94;92.58
56737;BME280;42618;51.226;4.910;2022-08-19T01:27:26;49569.50;;;-146.94;93.57
56737;BME280;42618;51.226;4.910;2022-08-19T01:30:07;49567.53;;;-146.94;94.07
56737;BME280;42618;51.226;4.910;2022-08-19T01:32:34;49587.47;;;-146.94;94.56
56737;BME280;42618;51.226;4.910;2022-08-19T01:35:03;49599.41;;;-146.94;94.69
56737;BME280;42618;51.226;4.910;2022-08-19T01:37:42;49575.50;;;-146.94;95.10
56737;BME280;42618;51.226;4.910;2022-08-19T01:40:09;49593.44;;;-146.94;95.14
56737;BME280;42618;51.226;4.910;2022-08-19T01:42:36;49545.59;;;-146.94;94.68
56737;BME280;42618;51.226;4.910;2022-08-19T01:45:04;49579.47;;;-146.94;94.54
56737;BME280;42618;51.226;4.910;2022-08-19T01:47:31;49535.63;;;-146.94;94.25
56737;BME280;42618;51.226;4.910;2022-08-19T01:49:58;49581.47;;;-146.94;93.85
56737;BME280;42618;51.226;4.910;2022-08-19T01:52:24;49567.53;;;-146.94;93.77
56737;BME280;42618;51.226;4.910;2022-08-19T01:54:51;49581.47;;;-146.94;94.30
56737;BME280;42618;51.226;4.910;2022-08-19T01:57:18;49587.47;;;-146.94;93.59
56737;BME280;42618;51.226;4.910;2022-08-19T01:59:45;49599.41;;;-146.94;94.46
56737;BME280;42618;51.226;4.910;2022-08-19T02:02:12;49589.44;;;-146.94;93.92
56737;BME280;42618;51.226;4.910;2022-08-19T02:04:38;49585.47;;;-146.94;93.60
56737;BME280;42618;51.226;4.910;2022-08-19T02:07:06;49575.50;;;-146.94;93.66
56737;BME280;42618;51.226;4.910;2022-08-19T02:09:35;49567.53;;;-146.94;94.02
56737;BME280;42618;51.226;4.910;2022-08-19T02:12:02;49537.63;;;-146.94;94.03
56737;BME280;42618;51.226;4.910;2022-08-19T02:14:28;49553.56;;;-146.94;94.26
56737;BME280;42618;51.226;4.910;2022-08-19T02:16:55;49597.44;;;-146.94;95.14
56737;BME280;42618;51.226;4.910;2022-08-19T02:19:22;49563.53;;;-146.94;95.26
56737;BME280;42618;51.226;4.910;2022-08-19T02:21:48;49619.34;;;-146.94;96.62
56737;BME280;42618;51.226;4.910;2022-08-19T02:24:15;49603.41;;;-146.94;96.15
56737;BME280;42618;51.226;4.910;2022-08-19T02:26:42;49537.63;;;-146.94;95.60
56737;BME280;42618;51.226;4.910;2022-08-19T02:29:09;49583.47;;;-146.94;95.20
56737;BME280;42618;51.226;4.910;2022-08-19T02:31:36;49579.47;;;-146.94;95.27
56737;BME280;42618;51.226;4.910;2022-08-19T02:34:02;49577.50;;;-146.94;94.88
56737;BME280;42618;51.226;4.910;2022-08-19T02:36:29;49571.50;;;-146.94;94.32
56737;BME280;42618;51.226;4.910;2022-08-19T02:38:56;49579.47;;;-146.94;95.71
56737;BME280;42618;51.226;4.910;2022-08-19T02:41:26;49579.47;;;-146.94;96.51
56737;BME280;42618;51.226;4.910;2022-08-19T02:43:54;49571.50;;;-146.94;97.18
56737;BME280;42618;51.226;4.910;2022-08-19T02:46:41;49553.56;;;-146.94;97.83
56737;BME280;42618;51.226;4.910;2022-08-19T02:49:09;49603.41;;;-146.94;98.57
56737;BME280;42618;51.226;4.910;2022-08-19T02:51:39;49577.50;;;-146.94;98.43
56737;BME280;42618;51.226;4.910;2022-08-19T02:54:08;49579.47;;;-146.94;98.79
56737;BME280;42618;51.226;4.910;2022-08-19T02:56:37;49593.44;;;-146.94;98.91
56737;BME280;42618;51.226;4.910;2022-08-19T02:59:05;49577.50;;;-146.94;98.25
56737;BME280;42618;51.226;4.910;2022-08-19T03:01:37;49595.44;;;-146.94;97.65
56737;BME280;42618;51.226;4.910;2022-08-19T03:04:07;49607.41;;;-146.94;97.91
56737;BME280;42618;51.226;4.910;2022-08-19T03:06:39;49557.56;;;-146.94;98.16
56737;BME280;42618;51.226;4.910;2022-08-19T03:09:06;49607.41;;;-146.94;98.32
56737;BME280;42618;51.226;4.910;2022-08-19T03:11:33;49599.41;;;-146.94;98.92
56737;BME280;42618;51.226;4.910;2022-08-19T03:14:00;49583.47;;;-146.94;98.78
56737;BME280;42618;51.226;4.910;2022-08-19T03:16:30;49581.47;;;-146.94;99.30
56737;BME280;42618;51.226;4.910;2022-08-19T03:19:00;49613.38;;;-146.94;99.21
56737;BME280;42618;51.226;4.910;2022-08-19T03:21:30;49593.44;;;-146.94;99.50
56737;BME280;42618;51.226;4.910;2022-08-19T03:23:59;49571.50;;;-146.94;99.24
56737;BME280;42618;51.226;4.910;2022-08-19T03:26:27;49595.44;;;-146.94;99.07
56737;BME280;42618;51.226;4.910;2022-08-19T03:28:53;49631.31;;;-146.94;99.08
56737;BME280;42618;51.226;4.910;2022-08-19T03:31:25;49587.47;;;-146.94;99.28
56737;BME280;42618;51.226;4.910;2022-08-19T03:34:18;49611.38;;;-146.94;99.19
56737;BME280;42618;51.226;4.910;2022-08-19T03:36:47;49607.41;;;-146.94;99.71
56737;BME280;42618;51.226;4.910;2022-08-19T03:39:15;49607.41;;;-146.94;99.29
56737;BME280;42618;51.226;4.910;2022-08-19T03:41:43;49539.63;;;-146.94;99.50
56737;BME280;42618;51.226;4.910;2022-08-19T03:44:15;49569.50;;;-146.94;99.30
56737;BME280;42618;51.226;4.910;2022-08-19T03:46:47;49591.44;;;-146.94;99.36
56737;BME280;42618;51.226;4.910;2022-08-19T03:49:14;49589.44;;;-146.94;99.61
56737;BME280;42618;51.226;4.910;2022-08-19T03:51:43;49565.53;;;-146.94;99.69
56737;BME280;42618;51.226;4.910;2022-08-19T03:54:12;49555.56;;;-146.94;99.94
56737;BME280;42618;51.226;4.910;2022-08-19T03:56:41;49623.34;;;-146.94;100.00
56737;BME280;42618;51.226;4.910;2022-08-19T03:59:11;49595.44;;;-146.94;99.92
56737;BME280;42618;51.226;4.910;2022-08-19T04:01:38;49557.56;;;-146.94;99.69
56737;BME280;42618;51.226;4.910;2022-08-19T04:04:05;49583.47;;;-146.94;99.79
56737;BME280;42618;51.226;4.910;2022-08-19T04:06:34;49589.44;;;-146.94;99.82
56737;BME280;42618;51.226;4.910;2022-08-19T04:09:08;49623.34;;;-146.94;100.00
56737;BME280;42618;51.226;4.910;2022-08-19T04:11:45;49577.50;;;-146.94;99.54
56737;BME280;42618;51.226;4.910;2022-08-19T04:14:15;49607.41;;;-146.94;98.67
56737;BME280;42618;51.226;4.910;2022-08-19T04:16:44;49591.44;;;-146.94;98.00
56737;BME280;42618;51.226;4.910;2022-08-19T04:19:11;49607.41;;;-146.94;97.42
56737;BME280;42618;51.226;4.910;2022-08-19T04:21:37;49617.38;;;-146.94;96.61
56737;BME280;42618;51.226;4.910;2022-08-19T04:24:04;49591.44;;;-146.94;97.11
56737;BME280;42618;51.226;4.910;2022-08-19T04:26:35;49583.47;;;-146.94;96.35
56737;BME280;42618;51.226;4.910;2022-08-19T04:29:06;49617.38;;;-146.94;97.23
56737;BME280;42618;51.226;4.910;2022-08-19T04:31:39;49587.47;;;-146.94;97.40
56737;BME280;42618;51.226;4.910;2022-08-19T04:34:09;49603.41;;;-146.94;97.50
56737;BME280;42618;51.226;4.910;2022-08-19T04:36:40;49623.34;;;-146.94;98.72
56737;BME280;42618;51.226;4.910;2022-08-19T04:39:16;49569.50;;;-146.94;97.88
56737;BME280;42618;51.226;4.910;2022-08-19T04:41:44;49611.38;;;-146.94;98.35
56737;BME280;42618;51.226;4.910;2022-08-19T04:44:31;49583.47;;;-146.94;98.88
56737;BME280;42618;51.226;4.910;2022-08-19T04:47:01;49631.31;;;-146.94;98.11
56737;BME280;42618;51.226;4.910;2022-08-19T04:49:37;49583.47;;;-146.94;98.99
56737;BME280;42618;51.226;4.910;2022-08-19T04:52:03;49599.41;;;-146.94;98.45
56737;BME280;42618;51.226;4.910;2022-08-19T04:54:30;49603.41;;;-146.94;98.07
56737;BME280;42618;51.226;4.910;2022-08-19T04:57:06;49605.41;;;-146.94;98.82
56737;BME280;42618;51.226;4.910;2022-08-19T04:59:36;49603.41;;;-146.94;98.77
56737;BME280;42618;51.226;4.910;2022-08-19T05:02:03;49593.44;;;-146.94;97.06
56737;BME280;42618;51.226;4.910;2022-08-19T05:04:30;49571.50;;;-146.94;97.27
56737;BME280;42618;51.226;4.910;2022-08-19T05:06:58;49617.38;;;-146.94;96.74
56737;BME280;42618;51.226;4.910;2022-08-19T05:09:27;49595.44;;;-146.94;97.61
56737;BME280;42618;51.226;4.910;2022-08-19T05:12:14;49599.41;;;-146.94;98.29
56737;BME280;42618;51.226;4.910;2022-08-19T05:14:42;49615.38;;;-146.94;98.25
56737;BME280;42618;51.226;4.910;2022-08-19T05:17:09;49567.53;;;-146.94;99.10
56737;BME280;42618;51.226;4.910;2022-08-19T05:19:54;49605.41;;;-146.94;98.88
56737;BME280;42618;51.226;4.910;2022-08-19T05:22:40;49603.41;;;-146.94;98.13
56737;BME280;42618;51.226;4.910;2022-08-19T05:25:10;49567.53;;;-146.94;97.68
56737;BME280;42618;51.226;4.910;2022-08-19T05:27:40;49589.44;;;-146.94;96.58
56737;BME280;42618;51.226;4.910;2022-08-19T05:30:09;49627.31;;;-146.94;95.64
56737;BME280;42618;51.226;4.910;2022-08-19T05:32:36;49583.47;;;-146.94;95.13
56737;BME280;42618;51.226;4.910;2022-08-19T05:35:04;49603.41;;;-146.94;95.60
56737;BME280;42618;51.226;4.910;2022-08-19T05:37:31;49613.38;;;-146.94;95.87
56737;BME280;42618;51.226;4.910;2022-08-19T05:39:57;49593.44;;;-146.94;97.77
56737;BME280;42618;51.226;4.910;2022-08-19T05:42:24;49607.41;;;-146.94;98.12
56737;BME280;42618;51.226;4.910;2022-08-19T05:44:53;49593.44;;;-146.94;98.77
56737;BME280;42618;51.226;4.910;2022-08-19T05:47:20;49569.50;;;-146.94;98.97
56737;BME280;42618;51.226;4.910;2022-08-19T05:49:47;49589.44;;;-146.94;98.84
56737;BME280;42618;51.226;4.910;2022-08-19T05:52:17;49579.47;;;-146.94;97.90
56737;BME280;42618;51.226;4.910;2022-08-19T05:54:51;49577.50;;;-146.94;97.15
56737;BME280;42618;51.226;4.910;2022-08-19T05:57:22;49599.41;;;-146.94;97.64
56737;BME280;42618;51.226;4.910;2022-08-19T05:59:49;49597.44;;;-146.94;96.90
56737;BME280;42618;51.226;4.910;2022-08-19T06:02:27;49601.41;;;-146.94;96.79
56737;BME280;42618;51.226;4.910;2022-08-19T06:04:55;49587.47;;;-146.94;96.66
56737;BME280;42618;51.226;4.910;2022-08-19T06:07:21;49599.41;;;-146.94;96.00
56737;BME280;42618;51.226;4.910;2022-08-19T06:09:48;49593.44;;;-146.94;96.36
56737;BME280;42618;51.226;4.910;2022-08-19T06:12:26;49555.56;;;-146.94;94.73
56737;BME280;42618;51.226;4.910;2022-08-19T06:14:57;49559.56;;;-146.94;94.34
56737;BME280;42618;51.226;4.910;2022-08-19T06:17:28;49613.38;;;-146.94;94.55
56737;BME280;42618;51.226;4.910;2022-08-19T06:19:57;49627.31;;;-146.94;94.24
56737;BME280;42618;51.226;4.910;2022-08-19T06:22:25;49615.38;;;-146.94;93.58
56737;BME280;42618;51.226;4.910;2022-08-19T06:24:52;49613.38;;;-146.94;92.81
56737;BME280;42618;51.226;4.910;2022-08-19T06:27:21;49599.41;;;-146.94;93.03
56737;BME280;42618;51.226;4.910;2022-08-19T06:29:48;49567.53;;;-146.94;92.98
56737;BME280;42618;51.226;4.910;2022-08-19T06:32:16;49567.53;;;-146.94;92.63
56737;BME280;42618;51.226;4.910;2022-08-19T06:34:44;49579.47;;;-146.94;91.50
56737;BME280;42618;51.226;4.910;2022-08-19T06:37:11;49593.44;;;-146.94;91.78
56737;BME280;42618;51.226;4.910;2022-08-19T06:39:40;49615.38;;;-146.94;91.81
56737;BME280;42618;51.226;4.910;2022-08-19T06:42:08;49579.47;;;-146.94;90.56
56737;BME280;42618;51.226;4.910;2022-08-19T06:44:39;49577.50;;;-146.94;90.80
56737;BME280;42618;51.226;4.910;2022-08-19T06:47:11;49555.56;;;-146.94;90.91
56737;BME280;42618;51.226;4.910;2022-08-19T06:49:48;49559.56;;;-146.94;90.18
56737;BME280;42618;51.226;4.910;2022-08-19T06:52:16;49555.56;;;-146.94;90.27
56737;BME280;42618;51.226;4.910;2022-08-19T06:54:43;49545.59;;;-146.94;90.40
56737;BME280;42618;51.226;4.910;2022-08-19T06:57:23;49575.50;;;-146.94;90.60
56737;BME280;42618;51.226;4.910;2022-08-19T06:59:51;49613.38;;;-146.94;91.25
56737;BME280;42618;51.226;4.910;2022-08-19T07:02:18;49603.41;;;-146.94;91.45
56737;BME280;42618;51.226;4.910;2022-08-19T07:04:45;49595.44;;;-146.94;91.74
56737;BME280;42618;51.226;4.910;2022-08-19T07:07:14;49595.44;;;-146.94;91.15
56737;BME280;42618;51.226;4.910;2022-08-19T07:09:47;49579.47;;;-146.94;90.98
56737;BME280;42618;51.226;4.910;2022-08-19T07:12:24;49591.44;;;-146.94;90.41
56737;BME280;42618;51.226;4.910;2022-08-19T07:14:51;49565.53;;;-146.94;90.88
56737;BME280;42618;51.226;4.910;2022-08-19T07:17:19;49583.47;;;-146.94;91.08
56737;BME280;42618;51.226;4.910;2022-08-19T07:19:47;49555.56;;;-146.94;90.62
56737;BME280;42618;51.226;4.910;2022-08-19T07:22:14;49571.50;;;-146.94;90.94
56737;BME280;42618;51.226;4.910;2022-08-19T07:24:43;49591.44;;;-146.94;91.55
56737;BME280;42618;51.226;4.910;2022-08-19T07:27:17;49555.56;;;-146.94;91.80
56737;BME280;42618;51.226;4.910;2022-08-19T07:29:50;49579.47;;;-146.94;91.89
56737;BME280;42618;51.226;4.910;2022-08-19T07:32:23;49595.44;;;-146.94;92.41
56737;BME280;42618;51.226;4.910;2022-08-19T07:34:52;49545.59;;;-146.94;92.16
56737;BME280;42618;51.226;4.910;2022-08-19T07:37:19;49587.47;;;-146.94;92.78
56737;BME280;42618;51.226;4.910;2022-08-19T07:39:45;49635.31;;;-146.94;92.28
56737;BME280;42618;51.226;4.910;2022-08-19T07:42:12;49605.41;;;-146.94;92.28
56737;BME280;42618;51.226;4.910;2022-08-19T07:44:40;49579.47;;;-146.94;92.43
56737;BME280;42618;51.226;4.910;2022-08-19T07:47:15;49597.44;;;-146.94;91.53
56737;BME280;42618;51.226;4.910;2022-08-19T07:50:06;49571.50;;;-146.94;91.28
56737;BME280;42618;51.226;4.910;2022-08-19T07:52:34;49547.59;;;-146.94;91.00
56737;BME280;42618;51.226;4.910;2022-08-19T07:55:04;49551.56;;;-146.94;90.28
56737;BME280;42618;51.226;4.910;2022-08-19T07:57:31;49577.50;;;-146.94;89.83
56737;BME280;42618;51.226;4.910;2022-08-19T07:59:58;49563.53;;;-146.94;88.49
56737;BME280;42618;51.226;4.910;2022-08-19T08:02:25;49571.50;;;-146.94;89.72
56737;BME280;42618;51.226;4.910;2022-08-19T08:04:52;49569.50;;;-146.94;89.25
56737;BME280;42618;51.226;4.910;2022-08-19T08:07:38;49513.69;;;-146.94;89.20
56737;BME280;42618;51.226;4.910;2022-08-19T08:10:23;49541.59;;;-146.94;88.65
56737;BME280;42618;51.226;4.910;2022-08-19T08:12:52;49535.63;;;-146.94;89.73
56737;BME280;42618;51.226;4.910;2022-08-19T08:15:37;49563.53;;;-146.94;89.15
56737;BME280;42618;51.226;4.910;2022-08-19T08:18:09;49551.56;;;-146.94;87.67
56737;BME280;42618;51.226;4.910;2022-08-19T08:20:35;49559.56;;;-146.94;87.37
56737;BME280;42618;51.226;4.910;2022-08-19T08:23:02;49583.47;;;-146.94;89.03
56737;BME280;42618;51.226;4.910;2022-08-19T08:25:48;49567.53;;;-146.94;88.09
56737;BME280;42618;51.226;4.910;2022-08-19T08:28:16;49555.56;;;-146.94;86.95
56737;BME280;42618;51.226;4.910;2022-08-19T08:30:44;49583.47;;;-146.94;86.09
56737;BME280;42618;51.226;4.910;2022-08-19T08:33:13;49531.63;;;-146.94;85.24
56737;BME280;42618;51.226;4.910;2022-08-19T08:35:41;49569.50;;;-146.94;85.20
56737;BME280;42618;51.226;4.910;2022-08-19T08:38:08;49565.53;;;-146.94;86.12
56737;BME280;42618;51.226;4.910;2022-08-19T08:43:29;49575.50;;;-146.94;86.58
56737;BME280;42618;51.226;4.910;2022-08-19T08:46:17;49575.50;;;-146.94;86.63
56737;BME280;42618;51.226;4.910;2022-08-19T08:49:06;49517.69;;;-146.94;85.63
56737;BME280;42618;51.226;4.910;2022-08-19T08:51:50;49527.66;;;-146.94;85.15
56737;BME280;42618;51.226;4.910;2022-08-19T08:54:37;49547.59;;;-146.94;85.08
56737;BME280;42618;51.226;4.910;2022-08-19T08:57:18;49557.56;;;-146.94;84.84
56737;BME280;42618;51.226;4.910;2022-08-19T08:59:48;49547.59;;;-146.94;85.36
56737;BME280;42618;51.226;4.910;2022-08-19T09:02:18;49553.56;;;-146.94;85.13
56737;BME280;42618;51.226;4.910;2022-08-19T09:04:45;49543.59;;;-146.94;84.78
56737;BME280;42618;51.226;4.910;2022-08-19T09:07:40;49551.56;;;-146.94;84.98
56737;BME280;42618;51.226;4.910;2022-08-19T09:16:01;49515.69;;;-146.94;83.80
56737;BME280;42618;51.226;4.910;2022-08-19T09:21:07;49511.72;;;-146.94;83.90
56737;BME280;42618;51.226;4.910;2022-08-19T09:23:36;49557.56;;;-146.94;83.67
56737;BME280;42618;51.226;4.910;2022-08-19T09:26:09;49547.59;;;-146.94;83.62
56737;BME280;42618;51.226;4.910;2022-08-19T09:28:37;49519.69;;;-146.94;82.92
56737;BME280;42618;51.226;4.910;2022-08-19T09:31:04;49515.69;;;-146.94;81.54
56737;BME280;42618;51.226;4.910;2022-08-19T09:33:31;49507.72;;;-146.94;80.52
56737;BME280;42618;51.226;4.910;2022-08-19T09:36:06;49547.59;;;-146.94;80.44
56737;BME280;42618;51.226;4.910;2022-08-19T09:38:35;49539.63;;;-146.94;80.29
56737;BME280;42618;51.226;4.910;2022-08-19T09:41:12;49487.78;;;-146.94;80.19
56737;BME280;42618;51.226;4.910;2022-08-19T09:43:41;49547.59;;;-146.94;80.97
56737;BME280;42618;51.226;4.910;2022-08-19T09:46:14;49547.59;;;-146.94;81.23
56737;BME280;42618;51.226;4.910;2022-08-19T09:48:43;49491.78;;;-146.94;81.50
56737;BME280;42618;51.226;4.910;2022-08-19T09:51:17;49535.63;;;-146.94;81.83
56737;BME280;42618;51.226;4.910;2022-08-19T09:53:48;49557.56;;;-146.94;81.30
56737;BME280;42618;51.226;4.910;2022-08-19T09:56:22;49533.63;;;-146.94;81.90
56737;BME280;42618;51.226;4.910;2022-08-19T09:58:50;49513.69;;;-146.94;82.13
56737;BME280;42618;51.226;4.910;2022-08-19T10:01:20;49547.59;;;-146.94;81.66
56737;BME280;42618;51.226;4.910;2022-08-19T10:03:53;49563.53;;;-146.94;82.82
56737;BME280;42618;51.226;4.910;2022-08-19T10:06:23;49535.63;;;-146.94;82.94
56737;BME280;42618;51.226;4.910;2022-08-19T10:09:10;49539.63;;;-146.94;83.54
56737;BME280;42618;51.226;4.910;2022-08-19T10:11:40;49553.56;;;-146.94;83.70
56737;BME280;42618;51.226;4.910;2022-08-19T10:14:19;49565.53;;;-146.94;83.63
56737;BME280;42618;51.226;4.910;2022-08-19T10:16:49;49539.63;;;-146.94;83.72
56737;BME280;42618;51.226;4.910;2022-08-19T10:19:18;49523.66;;;-146.94;83.50
56737;BME280;42618;51.226;4.910;2022-08-19T10:21:52;49555.56;;;-146.94;83.51
56737;BME280;42618;51.226;4.910;2022-08-19T10:24:25;49545.59;;;-146.94;83.29
56737;BME280;42618;51.226;4.910;2022-08-19T10:26:54;49531.63;;;-146.94;83.65
56737;BME280;42618;51.226;4.910;2022-08-19T10:29:26;49551.56;;;-146.94;84.20
56737;BME280;42618;51.226;4.910;2022-08-19T10:32:04;49547.59;;;-146.94;85.71
56737;BME280;42618;51.226;4.910;2022-08-19T10:34:39;49541.59;;;-146.94;87.16
56737;BME280;42618;51.226;4.910;2022-08-19T10:37:16;49529.66;;;-146.94;87.04
56737;BME280;42618;51.226;4.910;2022-08-19T10:39:54;49571.50;;;-146.94;86.32
56737;BME280;42618;51.226;4.910;2022-08-19T10:42:21;49553.56;;;-146.94;85.55
56737;BME280;42618;51.226;4.910;2022-08-19T10:44:48;49535.63;;;-146.94;85.28
56737;BME280;42618;51.226;4.910;2022-08-19T10:47:17;49535.63;;;-146.94;85.48
56737;BME280;42618;51.226;4.910;2022-08-19T10:49:55;49521.69;;;-146.94;84.61
56737;BME280;42618;51.226;4.910;2022-08-19T10:52:44;49565.53;;;-146.94;83.97
56737;BME280;42618;51.226;4.910;2022-08-19T10:55:21;49511.72;;;-146.94;84.00
56737;BME280;42618;51.226;4.910;2022-08-19T10:58:16;49575.50;;;-146.94;83.45
56737;BME280;42618;51.226;4.910;2022-08-19T11:00:46;49539.63;;;-146.94;82.56
56737;BME280;42618;51.226;4.910;2022-08-19T11:03:17;49511.72;;;-146.94;81.62
56737;BME280;42618;51.226;4.910;2022-08-19T11:05:44;49515.69;;;-146.94;80.85
56737;BME280;42618;51.226;4.910;2022-08-19T11:08:11;49527.66;;;-146.94;80.32
56737;BME280;42618;51.226;4.910;2022-08-19T11:10:53;49519.69;;;-146.94;80.17
56737;BME280;42618;51.226;4.910;2022-08-19T11:13:27;49523.66;;;-146.94;78.67
56737;BME280;42618;51.226;4.910;2022-08-19T11:16:00;49513.69;;;-146.94;78.13
56737;BME280;42618;51.226;4.910;2022-08-19T11:18:37;49527.66;;;-146.94;79.01
56737;BME280;42618;51.226;4.910;2022-08-19T11:21:26;49525.66;;;-146.94;79.27
56737;BME280;42618;51.226;4.910;2022-08-19T11:23:56;49513.69;;;-146.94;79.06
56737;BME280;42618;51.226;4.910;2022-08-19T11:26:24;49523.66;;;-146.94;78.72
56737;BME280;42618;51.226;4.910;2022-08-19T11:28:52;49511.72;;;-146.94;78.82
56737;BME280;42618;51.226;4.910;2022-08-19T11:31:23;49497.75;;;-146.94;78.51
56737;BME280;42618;51.226;4.910;2022-08-19T11:33:59;49539.63;;;-146.94;79.71
56737;BME280;42618;51.226;4.910;2022-08-19T11:36:27;49531.63;;;-146.94;80.01
56737;BME280;42618;51.226;4.910;2022-08-19T11:38:54;49509.72;;;-146.94;80.09
56737;BME280;42618;51.226;4.910;2022-08-19T11:41:22;49523.66;;;-146.94;80.27
56737;BME280;42618;51.226;4.910;2022-08-19T11:43:51;49551.56;;;-146.94;79.57
56737;BME280;42618;51.226;4.910;2022-08-19T11:46:20;49491.78;;;-146.94;79.20
56737;BME280;42618;51.226;4.910;2022-08-19T11:48:47;49527.66;;;-146.94;79.33
56737;BME280;42618;51.226;4.910;2022-08-19T11:51:21;49517.69;;;-146.94;79.12
56737;BME280;42618;51.226;4.910;2022-08-19T11:53:49;49535.63;;;-146.94;79.17
56737;BME280;42618;51.226;4.910;2022-08-19T11:56:18;49527.66;;;-146.94;78.39
56737;BME280;42618;51.226;4.910;2022-08-19T11:58:45;49507.72;;;-146.94;78.41
56737;BME280;42618;51.226;4.910;2022-08-19T12:01:14;49539.63;;;-146.94;77.55
56737;BME280;42618;51.226;4.910;2022-08-19T12:03:43;49523.66;;;-146.94;76.94
56737;BME280;42618;51.226;4.910;2022-08-19T12:06:14;49515.69;;;-146.94;77.17
56737;BME280;42618;51.226;4.910;2022-08-19T12:08:42;49479.81;;;-146.94;76.16
56737;BME280;42618;51.226;4.910;2022-08-19T12:11:11;49493.75;;;-146.94;76.12
56737;BME280;42618;51.226;4.910;2022-08-19T12:13:39;49499.75;;;-146.94;75.98
56737;BME280;42618;51.226;4.910;2022-08-19T12:16:15;49495.75;;;-146.94;75.03
56737;BME280;42618;51.226;4.910;2022-08-19T12:18:43;49485.78;;;-146.94;73.27
56737;BME280;42618;51.226;4.910;2022-08-19T12:21:14;49463.88;;;-146.94;70.40
56737;BME280;42618;51.226;4.910;2022-08-19T12:23:41;49495.75;;;-146.94;71.14
56737;BME280;42618;51.226;4.910;2022-08-19T12:26:08;49473.84;;;-146.94;71.04
56737;BME280;42618;51.226;4.910;2022-08-19T12:28:37;49475.81;;;-146.94;72.34
56737;BME280;42618;51.226;4.910;2022-08-19T12:31:04;49501.75;;;-146.94;72.04
56737;BME280;42618;51.226;4.910;2022-08-19T12:33:31;49499.75;;;-146.94;72.91
56737;BME280;42618;51.226;4.910;2022-08-19T12:36:06;49487.78;;;-146.94;73.20
56737;BME280;42618;51.226;4.910;2022-08-19T12:38:33;49497.75;;;-146.94;73.51
56737;BME280;42618;51.226;4.910;2022-08-19T12:41:00;49495.75;;;-146.94;73.62
56737;BME280;42618;51.226;4.910;2022-08-19T12:43:29;49479.81;;;-146.94;74.28
56737;BME280;42618;51.226;4.910;2022-08-19T12:45:56;49495.75;;;-146.94;76.82
56737;BME280;42618;51.226;4.910;2022-08-19T12:48:23;49463.88;;;-146.94;74.34
56737;BME280;42618;51.226;4.910;2022-08-19T12:51:00;49465.84;;;-146.94;71.99
56737;BME280;42618;51.226;4.910;2022-08-19T12:53:31;49451.91;;;-146.94;70.34
56737;BME280;42618;51.226;4.910;2022-08-19T12:55:59;49477.81;;;-146.94;67.64
56737;BME280;42618;51.226;4.910;2022-08-19T12:58:27;49467.84;;;-146.94;66.73
56737;BME280;42618;51.226;4.910;2022-08-19T13:00:55;49441.94;;;-146.94;64.72
56737;BME280;42618;51.226;4.910;2022-08-19T13:03:22;49475.81;;;-146.94;64.58
56737;BME280;42618;51.226;4.910;2022-08-19T13:05:53;49433.97;;;-146.94;63.84
56737;BME280;42618;51.226;4.910;2022-08-19T13:08:20;49424.00;;;-146.94;64.17
56737;BME280;42618;51.226;4.910;2022-08-19T13:10:47;49485.78;;;-146.94;64.40